SWA1833 KDEN-KEWR
Flight info
| Callsign | SWA1833 |
|---|---|
| Flight time | 2h 54m |
| Altitude | 36000 |
| Route | EMMYS8 ZIRKL LEFAM SPI WWODD RINTE KLYNE Q29 WWSHR DORET J584 SLT FQM3 |
| Aircraft | B737/M-SDE2E3FGHIRWXY/LB1 |
Departure
| Time | 2026-05-06 22:09 |
|---|---|
| Airport | Denver International Airport (KDEN) |
Arrival
| Time | 2026-05-07 01:03 |
|---|---|
| Airport | Newark Liberty International Airport (KEWR) |
| Time | Latitude | Longitude | Altitude | Speed | Heading |
|---|---|---|---|---|---|
| 2026-05-06 21:12 | 39.86260 | -104.67526 | 5385 ft | 0 kts | 0° |
| 2026-05-06 21:57 | 39.86248 | -104.67526 | 5383 ft | 4 kts | 1° |
| 2026-05-06 21:57 | 39.86221 | -104.67529 | 5384 ft | 4 kts | 12° |
| 2026-05-06 21:57 | 39.86199 | -104.67540 | 5384 ft | 4 kts | 57° |
| 2026-05-06 21:58 | 39.86194 | -104.67552 | 5385 ft | 0 kts | 90° |
| 2026-05-06 22:00 | 39.86194 | -104.67550 | 5385 ft | 1 kts | 90° |
| 2026-05-06 22:00 | 39.86194 | -104.67534 | 5385 ft | 3 kts | 97° |
| 2026-05-06 22:00 | 39.86175 | -104.67495 | 5383 ft | 8 kts | 129° |
| 2026-05-06 22:01 | 39.86138 | -104.67439 | 5385 ft | 8 kts | 124° |
| 2026-05-06 22:01 | 39.86132 | -104.67365 | 5385 ft | 9 kts | 90° |
| 2026-05-06 22:01 | 39.86132 | -104.67281 | 5385 ft | 10 kts | 90° |
| 2026-05-06 22:01 | 39.86131 | -104.67189 | 5385 ft | 11 kts | 90° |
| 2026-05-06 22:02 | 39.86130 | -104.67089 | 5385 ft | 11 kts | 90° |
| 2026-05-06 22:02 | 39.86130 | -104.66983 | 5385 ft | 12 kts | 90° |
| 2026-05-06 22:02 | 39.86129 | -104.66871 | 5385 ft | 13 kts | 90° |
| 2026-05-06 22:02 | 39.86128 | -104.66752 | 5385 ft | 13 kts | 90° |
| 2026-05-06 22:03 | 39.86127 | -104.66628 | 5385 ft | 14 kts | 90° |
| 2026-05-06 22:03 | 39.86109 | -104.66505 | 5385 ft | 14 kts | 99° |
| 2026-05-06 22:03 | 39.86108 | -104.66382 | 5382 ft | 14 kts | 74° |
| 2026-05-06 22:03 | 39.86193 | -104.66346 | 5385 ft | 14 kts | 0° |
| 2026-05-06 22:04 | 39.86303 | -104.66345 | 5382 ft | 17 kts | 0° |
| 2026-05-06 22:04 | 39.86421 | -104.66343 | 5383 ft | 17 kts | 1° |
| 2026-05-06 22:04 | 39.86651 | -104.66340 | 5381 ft | 19 kts | 0° |
| 2026-05-06 22:05 | 39.86789 | -104.66338 | 5377 ft | 21 kts | 1° |
| 2026-05-06 22:05 | 39.86944 | -104.66335 | 5371 ft | 23 kts | 1° |
| 2026-05-06 22:05 | 39.87106 | -104.66335 | 5366 ft | 23 kts | 0° |
| 2026-05-06 22:05 | 39.87263 | -104.66334 | 5365 ft | 22 kts | 0° |
| 2026-05-06 22:06 | 39.87414 | -104.66332 | 5362 ft | 18 kts | 1° |
| 2026-05-06 22:06 | 39.87480 | -104.66286 | 5361 ft | 11 kts | 70° |
| 2026-05-06 22:06 | 39.87523 | -104.66215 | 5361 ft | 11 kts | 8° |
| 2026-05-06 22:06 | 39.87596 | -104.66212 | 5361 ft | 11 kts | 360° |
| 2026-05-06 22:07 | 39.87668 | -104.66213 | 5360 ft | 10 kts | 360° |
| 2026-05-06 22:07 | 39.87738 | -104.66213 | 5360 ft | 10 kts | 3° |
| 2026-05-06 22:07 | 39.87755 | -104.66168 | 5358 ft | 6 kts | 90° |
| 2026-05-06 22:07 | 39.87755 | -104.66012 | 5355 ft | 50 kts | 91° |
| 2026-05-06 22:08 | 39.87748 | -104.65256 | 5353 ft | 114 kts | 90° |
| 2026-05-06 22:08 | 39.87739 | -104.63983 | 5329 ft | 166 kts | 90° |
| 2026-05-06 22:08 | 39.87731 | -104.62325 | 5542 ft | 197 kts | 90° |
| 2026-05-06 22:08 | 39.87723 | -104.60470 | 5980 ft | 213 kts | 90° |
| 2026-05-06 22:09 | 39.87700 | -104.58585 | 6843 ft | 206 kts | 91° |
| 2026-05-06 22:09 | 39.87673 | -104.56645 | 7188 ft | 227 kts | 91° |
| 2026-05-06 22:09 | 39.87643 | -104.54519 | 7447 ft | 249 kts | 91° |
| 2026-05-06 22:09 | 39.87612 | -104.52225 | 7986 ft | 257 kts | 91° |
| 2026-05-06 22:10 | 39.87581 | -104.49880 | 8658 ft | 260 kts | 91° |
| 2026-05-06 22:10 | 39.87549 | -104.47516 | 9355 ft | 263 kts | 91° |
| 2026-05-06 22:10 | 39.87517 | -104.45106 | 9752 ft | 274 kts | 91° |
| 2026-05-06 22:10 | 39.87481 | -104.42546 | 9796 ft | 287 kts | 91° |
| 2026-05-06 22:11 | 39.87446 | -104.39933 | 9820 ft | 290 kts | 91° |
| 2026-05-06 22:11 | 39.87432 | -104.37270 | 9960 ft | 310 kts | 90° |
| 2026-05-06 22:11 | 39.87424 | -104.34345 | 10199 ft | 336 kts | 90° |
| 2026-05-06 22:11 | 39.87413 | -104.31244 | 10793 ft | 347 kts | 90° |
| 2026-05-06 22:12 | 39.87400 | -104.28076 | 11690 ft | 351 kts | 89° |
| 2026-05-06 22:12 | 39.87385 | -104.24828 | 12074 ft | 366 kts | 89° |
| 2026-05-06 22:12 | 39.87368 | -104.21484 | 12859 ft | 372 kts | 89° |
| 2026-05-06 22:12 | 39.87349 | -104.18088 | 13680 ft | 378 kts | 89° |
| 2026-05-06 22:13 | 39.87329 | -104.14642 | 14433 ft | 384 kts | 88° |
| 2026-05-06 22:13 | 39.87308 | -104.11149 | 15246 ft | 388 kts | 88° |
| 2026-05-06 22:13 | 39.87285 | -104.07625 | 16117 ft | 390 kts | 88° |
| 2026-05-06 22:13 | 39.87261 | -104.04123 | 16937 ft | 394 kts | 88° |
| 2026-05-06 22:14 | 39.87237 | -104.00539 | 17752 ft | 398 kts | 88° |
| 2026-05-06 22:14 | 39.87211 | -103.96914 | 18544 ft | 403 kts | 87° |
| 2026-05-06 22:14 | 39.87183 | -103.93250 | 19224 ft | 407 kts | 88° |
| 2026-05-06 22:14 | 39.87193 | -103.89555 | 19887 ft | 410 kts | 84° |
| 2026-05-06 22:15 | 39.87424 | -103.85848 | 20554 ft | 413 kts | 81° |
| 2026-05-06 22:15 | 39.87734 | -103.82107 | 21140 ft | 420 kts | 81° |
| 2026-05-06 22:15 | 39.88042 | -103.78299 | 21699 ft | 426 kts | 81° |
| 2026-05-06 22:15 | 39.88323 | -103.74446 | 22381 ft | 429 kts | 82° |
| 2026-05-06 22:16 | 39.88647 | -103.70577 | 23043 ft | 431 kts | 79° |
| 2026-05-06 22:16 | 39.89067 | -103.66692 | 23657 ft | 435 kts | 78° |
| 2026-05-06 22:16 | 39.89531 | -103.62784 | 24171 ft | 439 kts | 78° |
| 2026-05-06 22:16 | 39.90002 | -103.58905 | 24759 ft | 439 kts | 77° |
| 2026-05-06 22:17 | 39.90474 | -103.54977 | 25397 ft | 439 kts | 77° |
| 2026-05-06 22:17 | 39.90936 | -103.51052 | 26014 ft | 439 kts | 77° |
| 2026-05-06 22:17 | 39.91393 | -103.47114 | 26554 ft | 442 kts | 77° |
| 2026-05-06 22:17 | 39.91851 | -103.43127 | 26875 ft | 449 kts | 77° |
| 2026-05-06 22:18 | 39.92308 | -103.39097 | 27366 ft | 450 kts | 77° |
| 2026-05-06 22:18 | 39.92760 | -103.35061 | 27946 ft | 450 kts | 77° |
| 2026-05-06 22:18 | 39.93210 | -103.31027 | 28498 ft | 451 kts | 77° |
| 2026-05-06 22:18 | 39.93661 | -103.26977 | 28969 ft | 452 kts | 77° |
| 2026-05-06 22:19 | 39.94112 | -103.22914 | 29415 ft | 454 kts | 77° |
| 2026-05-06 22:19 | 39.94565 | -103.18833 | 29866 ft | 456 kts | 76° |
| 2026-05-06 22:19 | 39.95010 | -103.14797 | 30351 ft | 455 kts | 76° |
| 2026-05-06 22:19 | 39.95458 | -103.10720 | 30786 ft | 456 kts | 78° |
| 2026-05-06 22:20 | 39.95915 | -103.06575 | 30827 ft | 467 kts | 78° |
| 2026-05-06 22:20 | 39.96377 | -103.02362 | 31036 ft | 471 kts | 78° |
| 2026-05-06 22:20 | 39.96836 | -102.98145 | 31475 ft | 470 kts | 78° |
| 2026-05-06 22:20 | 39.97292 | -102.93931 | 31950 ft | 468 kts | 78° |
| 2026-05-06 22:21 | 39.97746 | -102.89727 | 32301 ft | 469 kts | 78° |
| 2026-05-06 22:21 | 39.98201 | -102.85509 | 32608 ft | 471 kts | 78° |
| 2026-05-06 22:21 | 39.98657 | -102.81265 | 32947 ft | 472 kts | 78° |
| 2026-05-06 22:21 | 39.99105 | -102.77084 | 33332 ft | 472 kts | 78° |
| 2026-05-06 22:22 | 39.99559 | -102.72832 | 33526 ft | 477 kts | 79° |
| 2026-05-06 22:22 | 40.00019 | -102.68516 | 33657 ft | 482 kts | 79° |
| 2026-05-06 22:22 | 40.00478 | -102.64185 | 34026 ft | 482 kts | 79° |
| 2026-05-06 22:22 | 40.00934 | -102.59864 | 34423 ft | 480 kts | 79° |
| 2026-05-06 22:23 | 40.01386 | -102.55556 | 34698 ft | 480 kts | 79° |
| 2026-05-06 22:23 | 40.01840 | -102.51227 | 34879 ft | 483 kts | 79° |
| 2026-05-06 22:23 | 40.02294 | -102.46875 | 35090 ft | 485 kts | 79° |
| 2026-05-06 22:23 | 40.02748 | -102.42518 | 35356 ft | 485 kts | 79° |
| 2026-05-06 22:24 | 40.03194 | -102.38213 | 35611 ft | 486 kts | 80° |
| 2026-05-06 22:24 | 40.03648 | -102.33818 | 35704 ft | 491 kts | 80° |
| 2026-05-06 22:24 | 40.04104 | -102.29395 | 35906 ft | 492 kts | 80° |
| 2026-05-06 22:24 | 40.04557 | -102.24967 | 36188 ft | 492 kts | 80° |
| 2026-05-06 22:25 | 40.05465 | -102.16049 | 36180 ft | 496 kts | 81° |
| 2026-05-06 22:25 | 40.06363 | -102.07156 | 36167 ft | 491 kts | 81° |
| 2026-05-06 22:26 | 40.07248 | -101.98334 | 36169 ft | 491 kts | 81° |
| 2026-05-06 22:26 | 40.08123 | -101.89549 | 36182 ft | 492 kts | 81° |
| 2026-05-06 22:27 | 40.08998 | -101.80683 | 36180 ft | 493 kts | 81° |
| 2026-05-06 22:27 | 40.09871 | -101.71779 | 36176 ft | 495 kts | 81° |
| 2026-05-06 22:28 | 40.10739 | -101.62838 | 36170 ft | 497 kts | 82° |
| 2026-05-06 22:28 | 40.11599 | -101.53916 | 36182 ft | 499 kts | 82° |
| 2026-05-06 22:29 | 40.12462 | -101.44895 | 36178 ft | 501 kts | 82° |
| 2026-05-06 22:29 | 40.13295 | -101.35839 | 36171 ft | 503 kts | 84° |
| 2026-05-06 22:30 | 40.13666 | -101.26700 | 36176 ft | 504 kts | 88° |
| 2026-05-06 22:30 | 40.13822 | -101.17529 | 36186 ft | 505 kts | 88° |
| 2026-05-06 22:31 | 40.13997 | -101.08406 | 36173 ft | 506 kts | 88° |
| 2026-05-06 22:31 | 40.14216 | -100.99221 | 36166 ft | 506 kts | 88° |
| 2026-05-06 22:32 | 40.14450 | -100.90031 | 36159 ft | 506 kts | 88° |
| 2026-05-06 22:32 | 40.14677 | -100.80848 | 36148 ft | 505 kts | 88° |
| 2026-05-06 22:33 | 40.14895 | -100.71678 | 36141 ft | 505 kts | 88° |
| 2026-05-06 22:33 | 40.15103 | -100.62509 | 36140 ft | 504 kts | 88° |
| 2026-05-06 22:34 | 40.15303 | -100.53407 | 36134 ft | 504 kts | 88° |
| 2026-05-06 22:34 | 40.15496 | -100.44246 | 36151 ft | 504 kts | 88° |
| 2026-05-06 22:35 | 40.15682 | -100.35081 | 36157 ft | 505 kts | 88° |
| 2026-05-06 22:35 | 40.15862 | -100.25903 | 36131 ft | 505 kts | 88° |
| 2026-05-06 22:36 | 40.16034 | -100.16723 | 36141 ft | 506 kts | 89° |
| 2026-05-06 22:36 | 40.16198 | -100.07590 | 36141 ft | 506 kts | 89° |
| 2026-05-06 22:37 | 40.16357 | -99.98383 | 36139 ft | 507 kts | 89° |
| 2026-05-06 22:37 | 40.16508 | -99.89160 | 36146 ft | 508 kts | 89° |
| 2026-05-06 22:38 | 40.16652 | -99.79923 | 36148 ft | 509 kts | 89° |
| 2026-05-06 22:38 | 40.16789 | -99.70673 | 36167 ft | 510 kts | 89° |
| 2026-05-06 22:39 | 40.16918 | -99.61454 | 36159 ft | 511 kts | 89° |
| 2026-05-06 22:39 | 40.17041 | -99.52160 | 36155 ft | 512 kts | 89° |
| 2026-05-06 22:40 | 40.17156 | -99.42845 | 36154 ft | 513 kts | 90° |
| 2026-05-06 22:40 | 40.17265 | -99.33501 | 36146 ft | 514 kts | 90° |
| 2026-05-06 22:41 | 40.17413 | -99.19515 | 36133 ft | 516 kts | 90° |
| 2026-05-06 22:42 | 40.17503 | -99.10132 | 36143 ft | 516 kts | 90° |
| 2026-05-06 22:42 | 40.17586 | -99.00739 | 36130 ft | 517 kts | 90° |
| 2026-05-06 22:43 | 40.17649 | -98.92929 | 36140 ft | 517 kts | 90° |
| 2026-05-06 22:43 | 40.17728 | -98.81997 | 36137 ft | 517 kts | 91° |
| 2026-05-06 22:44 | 40.17788 | -98.72587 | 36135 ft | 518 kts | 91° |
| 2026-05-06 22:44 | 40.17832 | -98.64760 | 36129 ft | 518 kts | 91° |
| 2026-05-06 22:45 | 40.17878 | -98.55331 | 36135 ft | 519 kts | 91° |
| 2026-05-06 22:45 | 40.17916 | -98.45893 | 36132 ft | 519 kts | 91° |
| 2026-05-06 22:46 | 40.17947 | -98.36452 | 36131 ft | 520 kts | 91° |
| 2026-05-06 22:46 | 40.17970 | -98.27058 | 36093 ft | 520 kts | 91° |
| 2026-05-06 22:47 | 40.17986 | -98.17592 | 36124 ft | 521 kts | 92° |
| 2026-05-06 22:47 | 40.17993 | -98.08087 | 36134 ft | 523 kts | 92° |
| 2026-05-06 22:48 | 40.17993 | -97.98553 | 36123 ft | 525 kts | 92° |
| 2026-05-06 22:48 | 40.17985 | -97.88979 | 36112 ft | 528 kts | 92° |
| 2026-05-06 22:49 | 40.17970 | -97.79431 | 36119 ft | 530 kts | 92° |
| 2026-05-06 22:49 | 40.17946 | -97.69786 | 36113 ft | 531 kts | 92° |
| 2026-05-06 22:50 | 40.17914 | -97.60125 | 36108 ft | 532 kts | 92° |
| 2026-05-06 22:50 | 40.17867 | -97.48880 | 36111 ft | 533 kts | 92° |
| 2026-05-06 22:51 | 40.17827 | -97.40831 | 36114 ft | 533 kts | 93° |
| 2026-05-06 22:51 | 40.17771 | -97.31131 | 36110 ft | 533 kts | 93° |
| 2026-05-06 22:52 | 40.17707 | -97.21439 | 36110 ft | 533 kts | 93° |
| 2026-05-06 22:52 | 40.17634 | -97.11743 | 36107 ft | 533 kts | 93° |
| 2026-05-06 22:53 | 40.17555 | -97.02117 | 36105 ft | 533 kts | 93° |
| 2026-05-06 22:53 | 40.17466 | -96.92433 | 36105 ft | 532 kts | 93° |
| 2026-05-06 22:54 | 40.17370 | -96.82764 | 36105 ft | 532 kts | 93° |
| 2026-05-06 22:54 | 40.17266 | -96.73097 | 36103 ft | 532 kts | 94° |
| 2026-05-06 22:55 | 40.17154 | -96.63430 | 36109 ft | 532 kts | 94° |
| 2026-05-06 22:55 | 40.17034 | -96.53828 | 36119 ft | 532 kts | 94° |
| 2026-05-06 22:56 | 40.16906 | -96.44160 | 36118 ft | 532 kts | 94° |
| 2026-05-06 22:56 | 40.16771 | -96.34484 | 36113 ft | 533 kts | 94° |
| 2026-05-06 22:57 | 40.16615 | -96.24804 | 36115 ft | 533 kts | 94° |
| 2026-05-06 22:57 | 40.16405 | -96.15183 | 36113 ft | 533 kts | 95° |
| 2026-05-06 22:58 | 40.16175 | -96.05493 | 36107 ft | 534 kts | 95° |
| 2026-05-06 22:58 | 40.15943 | -95.95792 | 36112 ft | 534 kts | 95° |
| 2026-05-06 22:59 | 40.15709 | -95.86084 | 36115 ft | 535 kts | 95° |
| 2026-05-06 22:59 | 40.15467 | -95.76359 | 36107 ft | 536 kts | 95° |
| 2026-05-06 23:00 | 40.15218 | -95.66686 | 36083 ft | 536 kts | 95° |
| 2026-05-06 23:00 | 40.14958 | -95.56939 | 36104 ft | 537 kts | 95° |
| 2026-05-06 23:01 | 40.14690 | -95.47184 | 36107 ft | 538 kts | 95° |
| 2026-05-06 23:01 | 40.14413 | -95.37410 | 36098 ft | 538 kts | 96° |
| 2026-05-06 23:02 | 40.14131 | -95.27696 | 36103 ft | 539 kts | 96° |
| 2026-05-06 23:02 | 40.13837 | -95.17907 | 36108 ft | 539 kts | 96° |
| 2026-05-06 23:03 | 40.13536 | -95.08120 | 36105 ft | 539 kts | 96° |
| 2026-05-06 23:03 | 40.13225 | -94.98319 | 36102 ft | 540 kts | 96° |
| 2026-05-06 23:04 | 40.12905 | -94.88505 | 36101 ft | 542 kts | 96° |
| 2026-05-06 23:04 | 40.12578 | -94.78727 | 36113 ft | 543 kts | 96° |
| 2026-05-06 23:05 | 40.12240 | -94.68850 | 36107 ft | 545 kts | 96° |
| 2026-05-06 23:05 | 40.11894 | -94.58964 | 36117 ft | 545 kts | 96° |
| 2026-05-06 23:06 | 40.11538 | -94.49067 | 36115 ft | 546 kts | 97° |
| 2026-05-06 23:06 | 40.11174 | -94.39165 | 36129 ft | 546 kts | 97° |
| 2026-05-06 23:07 | 40.10803 | -94.29304 | 36116 ft | 548 kts | 97° |
| 2026-05-06 23:07 | 40.10421 | -94.19377 | 36125 ft | 548 kts | 97° |
| 2026-05-06 23:08 | 40.10030 | -94.09435 | 36118 ft | 548 kts | 97° |
| 2026-05-06 23:08 | 40.09631 | -93.99502 | 36124 ft | 548 kts | 97° |
| 2026-05-06 23:09 | 40.09226 | -93.89634 | 36125 ft | 548 kts | 97° |
| 2026-05-06 23:09 | 40.08809 | -93.79694 | 36118 ft | 548 kts | 97° |
| 2026-05-06 23:10 | 40.08383 | -93.69739 | 36117 ft | 550 kts | 97° |
| 2026-05-06 23:10 | 40.07948 | -93.59774 | 36117 ft | 550 kts | 98° |
| 2026-05-06 23:11 | 40.07507 | -93.49869 | 36125 ft | 550 kts | 98° |
| 2026-05-06 23:11 | 40.07054 | -93.39884 | 36123 ft | 552 kts | 98° |
| 2026-05-06 23:12 | 40.06591 | -93.29885 | 36122 ft | 552 kts | 98° |
| 2026-05-06 23:12 | 40.06120 | -93.19877 | 36117 ft | 552 kts | 98° |
| 2026-05-06 23:13 | 40.05641 | -93.09883 | 36120 ft | 551 kts | 98° |
| 2026-05-06 23:13 | 40.05157 | -92.99966 | 36108 ft | 551 kts | 98° |
| 2026-05-06 23:14 | 40.04662 | -92.89988 | 36124 ft | 551 kts | 98° |
| 2026-05-06 23:14 | 40.04157 | -92.80005 | 36119 ft | 551 kts | 98° |
| 2026-05-06 23:15 | 40.03643 | -92.70021 | 36123 ft | 551 kts | 98° |
| 2026-05-06 23:15 | 40.03125 | -92.60110 | 36107 ft | 552 kts | 99° |
| 2026-05-06 23:16 | 40.02593 | -92.50109 | 36115 ft | 553 kts | 99° |
| 2026-05-06 23:16 | 40.02051 | -92.40088 | 36125 ft | 554 kts | 99° |
| 2026-05-06 23:17 | 40.01500 | -92.30043 | 36123 ft | 556 kts | 99° |
| 2026-05-06 23:17 | 40.00942 | -92.20038 | 36071 ft | 557 kts | 99° |
| 2026-05-06 23:18 | 40.00370 | -92.09942 | 36091 ft | 558 kts | 100° |
| 2026-05-06 23:18 | 39.99788 | -91.99824 | 36106 ft | 561 kts | 100° |
| 2026-05-06 23:19 | 39.99194 | -91.89668 | 36111 ft | 563 kts | 100° |
| 2026-05-06 23:19 | 39.98593 | -91.79525 | 36098 ft | 566 kts | 100° |
| 2026-05-06 23:20 | 39.97977 | -91.69280 | 36106 ft | 568 kts | 100° |
| 2026-05-06 23:20 | 39.97350 | -91.59005 | 36094 ft | 569 kts | 101° |
| 2026-05-06 23:21 | 39.96713 | -91.48716 | 36062 ft | 570 kts | 101° |
| 2026-05-06 23:21 | 39.96066 | -91.38417 | 36085 ft | 570 kts | 101° |
| 2026-05-06 23:22 | 39.95414 | -91.28177 | 36084 ft | 571 kts | 101° |
| 2026-05-06 23:22 | 39.94748 | -91.17869 | 36085 ft | 571 kts | 101° |
| 2026-05-06 23:23 | 39.94073 | -91.07567 | 36078 ft | 570 kts | 101° |
| 2026-05-06 23:23 | 39.93390 | -90.97281 | 36081 ft | 570 kts | 102° |
| 2026-05-06 23:24 | 39.92702 | -90.87065 | 36083 ft | 570 kts | 102° |
| 2026-05-06 23:24 | 39.92000 | -90.76783 | 36088 ft | 570 kts | 102° |
| 2026-05-06 23:25 | 39.91290 | -90.66500 | 36081 ft | 570 kts | 102° |
| 2026-05-06 23:25 | 39.90570 | -90.56227 | 36086 ft | 570 kts | 102° |
| 2026-05-06 23:26 | 39.89841 | -90.45945 | 36084 ft | 570 kts | 102° |
| 2026-05-06 23:26 | 39.89108 | -90.35733 | 36051 ft | 570 kts | 102° |
| 2026-05-06 23:27 | 39.88361 | -90.25459 | 36081 ft | 570 kts | 103° |
| 2026-05-06 23:27 | 39.87605 | -90.15186 | 36089 ft | 570 kts | 103° |
| 2026-05-06 23:28 | 39.86838 | -90.04902 | 36087 ft | 571 kts | 103° |
| 2026-05-06 23:28 | 39.86068 | -89.94675 | 36062 ft | 572 kts | 103° |
| 2026-05-06 23:29 | 39.85282 | -89.84372 | 36077 ft | 572 kts | 103° |
| 2026-05-06 23:29 | 39.84488 | -89.74065 | 36077 ft | 573 kts | 103° |
| 2026-05-06 23:30 | 39.83898 | -89.63704 | 36063 ft | 580 kts | 95° |
| 2026-05-06 23:30 | 39.84127 | -89.53264 | 36072 ft | 582 kts | 92° |
| 2026-05-06 23:31 | 39.84489 | -89.42738 | 36078 ft | 582 kts | 92° |
| 2026-05-06 23:31 | 39.84768 | -89.32216 | 36065 ft | 582 kts | 93° |
| 2026-05-06 23:32 | 39.84973 | -89.21705 | 36034 ft | 580 kts | 94° |
| 2026-05-06 23:32 | 39.85151 | -89.11280 | 36064 ft | 580 kts | 94° |
| 2026-05-06 23:33 | 39.85326 | -89.00791 | 36056 ft | 580 kts | 94° |
| 2026-05-06 23:33 | 39.85498 | -88.90296 | 36062 ft | 581 kts | 94° |
| 2026-05-06 23:34 | 39.85663 | -88.79779 | 36047 ft | 583 kts | 94° |
| 2026-05-06 23:34 | 39.85818 | -88.69218 | 36052 ft | 584 kts | 94° |
| 2026-05-06 23:35 | 39.85964 | -88.58721 | 36051 ft | 583 kts | 94° |
| 2026-05-06 23:35 | 39.86101 | -88.48173 | 36049 ft | 583 kts | 94° |
| 2026-05-06 23:36 | 39.86227 | -88.37635 | 36042 ft | 582 kts | 94° |
| 2026-05-06 23:36 | 39.86343 | -88.27107 | 36057 ft | 582 kts | 94° |
| 2026-05-06 23:37 | 39.86449 | -88.16637 | 36042 ft | 583 kts | 94° |
| 2026-05-06 23:37 | 39.86546 | -88.06100 | 36035 ft | 583 kts | 94° |
| 2026-05-06 23:38 | 39.86634 | -87.95554 | 36051 ft | 583 kts | 94° |
| 2026-05-06 23:38 | 39.86713 | -87.85001 | 36058 ft | 583 kts | 95° |
| 2026-05-06 23:39 | 39.86782 | -87.74437 | 36046 ft | 584 kts | 95° |
| 2026-05-06 23:39 | 39.86841 | -87.63934 | 36041 ft | 584 kts | 95° |
| 2026-05-06 23:40 | 39.86892 | -87.53364 | 36041 ft | 585 kts | 95° |
| 2026-05-06 23:40 | 39.86932 | -87.42782 | 36050 ft | 585 kts | 95° |
| 2026-05-06 23:41 | 39.86963 | -87.32183 | 36025 ft | 586 kts | 95° |
| 2026-05-06 23:41 | 39.86984 | -87.21584 | 36043 ft | 586 kts | 95° |
| 2026-05-06 23:42 | 39.86996 | -87.11050 | 36038 ft | 586 kts | 95° |
| 2026-05-06 23:42 | 39.86998 | -87.00456 | 36028 ft | 585 kts | 95° |
| 2026-05-06 23:43 | 39.86991 | -86.89861 | 36021 ft | 585 kts | 95° |
| 2026-05-06 23:43 | 39.86974 | -86.79283 | 36030 ft | 584 kts | 95° |
| 2026-05-06 23:44 | 39.86947 | -86.68777 | 36032 ft | 584 kts | 95° |
| 2026-05-06 23:44 | 39.86911 | -86.58214 | 36026 ft | 583 kts | 95° |
| 2026-05-06 23:45 | 39.86866 | -86.47655 | 36026 ft | 582 kts | 95° |
| 2026-05-06 23:45 | 39.86860 | -86.37172 | 36026 ft | 585 kts | 90° |
| 2026-05-06 23:45 | 39.87284 | -86.31890 | 36014 ft | 589 kts | 79° |
| 2026-05-06 23:46 | 39.88239 | -86.26707 | 36056 ft | 588 kts | 74° |
| 2026-05-06 23:46 | 39.90350 | -86.16397 | 36008 ft | 590 kts | 74° |
| 2026-05-06 23:47 | 39.92409 | -86.06051 | 36022 ft | 591 kts | 75° |
| 2026-05-06 23:47 | 39.94391 | -85.95656 | 36027 ft | 591 kts | 75° |
| 2026-05-06 23:48 | 39.96330 | -85.85305 | 36088 ft | 592 kts | 76° |
| 2026-05-06 23:48 | 39.98282 | -85.74857 | 36015 ft | 594 kts | 76° |
| 2026-05-06 23:49 | 40.00230 | -85.64409 | 36023 ft | 592 kts | 76° |
| 2026-05-06 23:49 | 40.02167 | -85.53980 | 36005 ft | 591 kts | 76° |
| 2026-05-06 23:50 | 40.04088 | -85.43573 | 36001 ft | 589 kts | 76° |
| 2026-05-06 23:50 | 40.06925 | -85.28104 | 36011 ft | 586 kts | 76° |
| 2026-05-06 23:51 | 40.08811 | -85.17747 | 36025 ft | 586 kts | 76° |
| 2026-05-06 23:51 | 40.10689 | -85.07376 | 36018 ft | 587 kts | 76° |
| 2026-05-06 23:52 | 40.12562 | -84.96981 | 36006 ft | 588 kts | 76° |
| 2026-05-06 23:52 | 40.14414 | -84.86643 | 36091 ft | 589 kts | 76° |
| 2026-05-06 23:53 | 40.16274 | -84.76200 | 36011 ft | 591 kts | 76° |
| 2026-05-06 23:53 | 40.18127 | -84.65741 | 35981 ft | 590 kts | 76° |
| 2026-05-06 23:54 | 40.19965 | -84.55302 | 36010 ft | 588 kts | 76° |
| 2026-05-06 23:54 | 40.21790 | -84.44888 | 36000 ft | 587 kts | 76° |
| 2026-05-06 23:55 | 40.23589 | -84.34557 | 36011 ft | 586 kts | 76° |
| 2026-05-06 23:55 | 40.25389 | -84.24164 | 36003 ft | 585 kts | 76° |
| 2026-05-06 23:56 | 40.27180 | -84.13770 | 36005 ft | 586 kts | 76° |
| 2026-05-06 23:56 | 40.29686 | -84.03701 | 36025 ft | 578 kts | 59° |
| 2026-05-06 23:57 | 40.33882 | -83.94916 | 36061 ft | 563 kts | 43° |
| 2026-05-06 23:57 | 40.38659 | -83.86756 | 36013 ft | 565 kts | 43° |
| 2026-05-06 23:58 | 40.43358 | -83.78563 | 36012 ft | 567 kts | 44° |
| 2026-05-06 23:58 | 40.48046 | -83.70224 | 36012 ft | 567 kts | 44° |
| 2026-05-06 23:59 | 40.52718 | -83.61866 | 36013 ft | 567 kts | 44° |
| 2026-05-06 23:59 | 40.57387 | -83.53508 | 36008 ft | 567 kts | 44° |
| 2026-05-07 00:00 | 40.62044 | -83.45157 | 36007 ft | 565 kts | 44° |
| 2026-05-07 00:00 | 40.66428 | -83.36604 | 35998 ft | 576 kts | 57° |
| 2026-05-07 00:01 | 40.69226 | -83.26653 | 36006 ft | 584 kts | 76° |
| 2026-05-07 00:01 | 40.70980 | -83.16210 | 36055 ft | 584 kts | 76° |
| 2026-05-07 00:02 | 40.72751 | -83.05757 | 35999 ft | 584 kts | 76° |
| 2026-05-07 00:02 | 40.74569 | -82.95412 | 35996 ft | 583 kts | 75° |
| 2026-05-07 00:03 | 40.76418 | -82.85021 | 35995 ft | 581 kts | 75° |
| 2026-05-07 00:03 | 40.78254 | -82.74645 | 35985 ft | 581 kts | 75° |
| 2026-05-07 00:04 | 40.80071 | -82.64275 | 36002 ft | 580 kts | 75° |
| 2026-05-07 00:04 | 40.81878 | -82.53883 | 36004 ft | 581 kts | 76° |
| 2026-05-07 00:05 | 40.83664 | -82.43552 | 35994 ft | 582 kts | 76° |
| 2026-05-07 00:05 | 40.85456 | -82.33130 | 35989 ft | 581 kts | 75° |
| 2026-05-07 00:06 | 40.87235 | -82.22724 | 36029 ft | 581 kts | 76° |
| 2026-05-07 00:06 | 40.89009 | -82.12290 | 35995 ft | 582 kts | 76° |
| 2026-05-07 00:07 | 40.90761 | -82.01926 | 36000 ft | 581 kts | 76° |
| 2026-05-07 00:07 | 40.92512 | -81.91506 | 35995 ft | 580 kts | 76° |
| 2026-05-07 00:08 | 40.94250 | -81.81097 | 36001 ft | 579 kts | 76° |
| 2026-05-07 00:08 | 40.95979 | -81.70686 | 36000 ft | 579 kts | 76° |
| 2026-05-07 00:09 | 40.97698 | -81.60272 | 35981 ft | 579 kts | 76° |
| 2026-05-07 00:09 | 40.99406 | -81.49862 | 35993 ft | 579 kts | 76° |
| 2026-05-07 00:10 | 41.01095 | -81.39510 | 35991 ft | 579 kts | 76° |
| 2026-05-07 00:10 | 41.02785 | -81.29083 | 36028 ft | 580 kts | 76° |
| 2026-05-07 00:11 | 41.04467 | -81.18643 | 36005 ft | 579 kts | 76° |
| 2026-05-07 00:11 | 41.06139 | -81.08198 | 35991 ft | 579 kts | 76° |
| 2026-05-07 00:12 | 41.07799 | -80.97772 | 35997 ft | 578 kts | 76° |
| 2026-05-07 00:12 | 41.09447 | -80.87352 | 35981 ft | 577 kts | 76° |
| 2026-05-07 00:13 | 41.11073 | -80.77011 | 35999 ft | 576 kts | 76° |
| 2026-05-07 00:13 | 41.12699 | -80.66605 | 36001 ft | 577 kts | 76° |
| 2026-05-07 00:14 | 41.14317 | -80.56181 | 36007 ft | 577 kts | 77° |
| 2026-05-07 00:14 | 41.15926 | -80.45752 | 36005 ft | 577 kts | 76° |
| 2026-05-07 00:15 | 41.17525 | -80.35323 | 36030 ft | 578 kts | 77° |
| 2026-05-07 00:15 | 41.19108 | -80.24927 | 36016 ft | 578 kts | 77° |
| 2026-05-07 00:16 | 41.20692 | -80.14465 | 35979 ft | 577 kts | 77° |
| 2026-05-07 00:16 | 41.22260 | -80.04034 | 35998 ft | 576 kts | 77° |
| 2026-05-07 00:17 | 41.23817 | -79.93609 | 35999 ft | 575 kts | 77° |
| 2026-05-07 00:17 | 41.25364 | -79.83192 | 35998 ft | 575 kts | 77° |
| 2026-05-07 00:18 | 41.26900 | -79.72771 | 35992 ft | 574 kts | 77° |
| 2026-05-07 00:18 | 41.28417 | -79.62419 | 35981 ft | 574 kts | 77° |
| 2026-05-07 00:19 | 41.29933 | -79.52001 | 35879 ft | 572 kts | 77° |
| 2026-05-07 00:19 | 41.30683 | -79.46814 | 35599 ft | 569 kts | 77° |
| 2026-05-07 00:19 | 41.31427 | -79.41659 | 35341 ft | 566 kts | 77° |
| 2026-05-07 00:20 | 41.32166 | -79.36522 | 35113 ft | 567 kts | 77° |
| 2026-05-07 00:20 | 41.32906 | -79.31362 | 34895 ft | 568 kts | 77° |
| 2026-05-07 00:20 | 41.33645 | -79.26194 | 34647 ft | 569 kts | 77° |
| 2026-05-07 00:20 | 41.34382 | -79.21022 | 34418 ft | 570 kts | 77° |
| 2026-05-07 00:21 | 41.35118 | -79.15833 | 34185 ft | 571 kts | 77° |
| 2026-05-07 00:21 | 41.35842 | -79.10715 | 33953 ft | 571 kts | 77° |
| 2026-05-07 00:21 | 41.36575 | -79.05518 | 33664 ft | 572 kts | 78° |
| 2026-05-07 00:21 | 41.37306 | -79.00312 | 33417 ft | 572 kts | 77° |
| 2026-05-07 00:22 | 41.38034 | -78.95109 | 33143 ft | 572 kts | 78° |
| 2026-05-07 00:22 | 41.38759 | -78.89912 | 32968 ft | 570 kts | 78° |
| 2026-05-07 00:22 | 41.40198 | -78.79542 | 32958 ft | 571 kts | 78° |
| 2026-05-07 00:23 | 41.41621 | -78.69220 | 32951 ft | 570 kts | 78° |
| 2026-05-07 00:23 | 41.43043 | -78.58832 | 32993 ft | 569 kts | 78° |
| 2026-05-07 00:24 | 41.44456 | -78.48437 | 32957 ft | 570 kts | 78° |
| 2026-05-07 00:24 | 41.45859 | -78.38038 | 32934 ft | 570 kts | 78° |
| 2026-05-07 00:25 | 41.47252 | -78.27647 | 32942 ft | 569 kts | 78° |
| 2026-05-07 00:25 | 41.48043 | -78.21708 | 32928 ft | 569 kts | 78° |
| 2026-05-07 00:26 | 41.49399 | -78.11315 | 32941 ft | 569 kts | 82° |
| 2026-05-07 00:26 | 41.49670 | -78.06146 | 32750 ft | 563 kts | 93° |
| 2026-05-07 00:26 | 41.49380 | -78.00997 | 32469 ft | 550 kts | 104° |
| 2026-05-07 00:27 | 41.48577 | -77.96086 | 32216 ft | 535 kts | 110° |
| 2026-05-07 00:27 | 41.47700 | -77.91309 | 31915 ft | 527 kts | 110° |
| 2026-05-07 00:27 | 41.46842 | -77.86596 | 31649 ft | 520 kts | 110° |
| 2026-05-07 00:27 | 41.46010 | -77.81934 | 31401 ft | 513 kts | 110° |
| 2026-05-07 00:28 | 41.45204 | -77.77333 | 31148 ft | 507 kts | 110° |
| 2026-05-07 00:28 | 41.44418 | -77.72779 | 30901 ft | 501 kts | 110° |
| 2026-05-07 00:28 | 41.43646 | -77.68283 | 30656 ft | 495 kts | 110° |
| 2026-05-07 00:28 | 41.42892 | -77.63886 | 30416 ft | 490 kts | 110° |
| 2026-05-07 00:29 | 41.42138 | -77.59490 | 30178 ft | 485 kts | 110° |
| 2026-05-07 00:29 | 41.41388 | -77.55134 | 29904 ft | 480 kts | 110° |
| 2026-05-07 00:30 | 41.39170 | -77.42355 | 29061 ft | 466 kts | 110° |
| 2026-05-07 00:30 | 41.38437 | -77.38160 | 28787 ft | 464 kts | 110° |
| 2026-05-07 00:30 | 41.37707 | -77.33992 | 28514 ft | 462 kts | 110° |
| 2026-05-07 00:30 | 41.36978 | -77.29838 | 28261 ft | 461 kts | 110° |
| 2026-05-07 00:31 | 41.36245 | -77.25677 | 28017 ft | 463 kts | 110° |
| 2026-05-07 00:31 | 41.35502 | -77.21483 | 27717 ft | 468 kts | 110° |
| 2026-05-07 00:31 | 41.34764 | -77.17318 | 27484 ft | 469 kts | 110° |
| 2026-05-07 00:31 | 41.34017 | -77.13091 | 27227 ft | 469 kts | 110° |
| 2026-05-07 00:32 | 41.33269 | -77.08868 | 26926 ft | 470 kts | 110° |
| 2026-05-07 00:32 | 41.32514 | -77.04616 | 26461 ft | 474 kts | 110° |
| 2026-05-07 00:32 | 41.31751 | -77.00336 | 26003 ft | 476 kts | 110° |
| 2026-05-07 00:32 | 41.30990 | -76.96063 | 25534 ft | 474 kts | 110° |
| 2026-05-07 00:33 | 41.30227 | -76.91791 | 24926 ft | 476 kts | 110° |
| 2026-05-07 00:33 | 41.29459 | -76.87503 | 24340 ft | 477 kts | 110° |
| 2026-05-07 00:33 | 41.28686 | -76.83202 | 23717 ft | 478 kts | 110° |
| 2026-05-07 00:33 | 41.27912 | -76.78902 | 23066 ft | 478 kts | 110° |
| 2026-05-07 00:34 | 41.27136 | -76.74606 | 22384 ft | 478 kts | 109° |
| 2026-05-07 00:34 | 41.26361 | -76.70316 | 21713 ft | 477 kts | 109° |
| 2026-05-07 00:34 | 41.25598 | -76.66105 | 21068 ft | 474 kts | 109° |
| 2026-05-07 00:34 | 41.24826 | -76.61853 | 20409 ft | 472 kts | 109° |
| 2026-05-07 00:35 | 41.24060 | -76.57637 | 19776 ft | 468 kts | 108° |
| 2026-05-07 00:35 | 41.23297 | -76.53457 | 19235 ft | 462 kts | 108° |
| 2026-05-07 00:35 | 41.22553 | -76.49371 | 19009 ft | 447 kts | 108° |
| 2026-05-07 00:35 | 41.21833 | -76.45424 | 18842 ft | 432 kts | 108° |
| 2026-05-07 00:36 | 41.21134 | -76.41603 | 18671 ft | 419 kts | 108° |
| 2026-05-07 00:36 | 41.20447 | -76.37875 | 18184 ft | 417 kts | 108° |
| 2026-05-07 00:36 | 41.19752 | -76.34132 | 17541 ft | 417 kts | 108° |
| 2026-05-07 00:36 | 41.19057 | -76.30391 | 16903 ft | 417 kts | 108° |
| 2026-05-07 00:37 | 41.18364 | -76.26661 | 16275 ft | 416 kts | 109° |
| 2026-05-07 00:37 | 41.17672 | -76.22937 | 15665 ft | 415 kts | 109° |
| 2026-05-07 00:37 | 41.16992 | -76.19275 | 15069 ft | 413 kts | 109° |
| 2026-05-07 00:37 | 41.16306 | -76.15588 | 14468 ft | 411 kts | 109° |
| 2026-05-07 00:38 | 41.15621 | -76.11913 | 13883 ft | 409 kts | 109° |
| 2026-05-07 00:38 | 41.14940 | -76.08266 | 13327 ft | 405 kts | 109° |
| 2026-05-07 00:38 | 41.14267 | -76.04707 | 13134 ft | 389 kts | 110° |
| 2026-05-07 00:38 | 41.13463 | -76.01362 | 13100 ft | 376 kts | 116° |
| 2026-05-07 00:39 | 41.12551 | -75.98117 | 13073 ft | 376 kts | 117° |
| 2026-05-07 00:39 | 41.11611 | -75.94889 | 13091 ft | 377 kts | 117° |
| 2026-05-07 00:39 | 41.10671 | -75.91632 | 13067 ft | 377 kts | 117° |
| 2026-05-07 00:39 | 41.09748 | -75.88384 | 13062 ft | 377 kts | 116° |
| 2026-05-07 00:40 | 41.08837 | -75.85133 | 13073 ft | 376 kts | 116° |
| 2026-05-07 00:40 | 41.07945 | -75.81926 | 13071 ft | 376 kts | 116° |
| 2026-05-07 00:40 | 41.07043 | -75.78674 | 13073 ft | 376 kts | 116° |
| 2026-05-07 00:40 | 41.06143 | -75.75423 | 13053 ft | 377 kts | 116° |
| 2026-05-07 00:41 | 41.05239 | -75.72162 | 13039 ft | 377 kts | 116° |
| 2026-05-07 00:41 | 41.04332 | -75.68895 | 13049 ft | 378 kts | 116° |
| 2026-05-07 00:41 | 41.03424 | -75.65626 | 13041 ft | 379 kts | 116° |
| 2026-05-07 00:41 | 41.02513 | -75.62348 | 13037 ft | 380 kts | 116° |
| 2026-05-07 00:42 | 41.01598 | -75.59068 | 13035 ft | 379 kts | 116° |
| 2026-05-07 00:42 | 41.00685 | -75.55794 | 13044 ft | 379 kts | 116° |
| 2026-05-07 00:42 | 40.99770 | -75.52524 | 13040 ft | 379 kts | 116° |
| 2026-05-07 00:42 | 40.98856 | -75.49255 | 13035 ft | 379 kts | 116° |
| 2026-05-07 00:43 | 40.97950 | -75.46022 | 12842 ft | 380 kts | 116° |
| 2026-05-07 00:43 | 40.97031 | -75.42745 | 12589 ft | 379 kts | 116° |
| 2026-05-07 00:43 | 40.96117 | -75.39484 | 12319 ft | 376 kts | 116° |
| 2026-05-07 00:43 | 40.95212 | -75.36257 | 12062 ft | 372 kts | 116° |
| 2026-05-07 00:44 | 40.94318 | -75.33072 | 11811 ft | 367 kts | 116° |
| 2026-05-07 00:44 | 40.93431 | -75.29921 | 11544 ft | 364 kts | 117° |
| 2026-05-07 00:44 | 40.92547 | -75.26791 | 11303 ft | 362 kts | 117° |
| 2026-05-07 00:44 | 40.91668 | -75.23678 | 11076 ft | 360 kts | 117° |
| 2026-05-07 00:45 | 40.90792 | -75.20584 | 10806 ft | 359 kts | 116° |
| 2026-05-07 00:45 | 40.89919 | -75.17498 | 10560 ft | 357 kts | 117° |
| 2026-05-07 00:45 | 40.89049 | -75.14426 | 10319 ft | 356 kts | 117° |
| 2026-05-07 00:45 | 40.88193 | -75.11412 | 10086 ft | 355 kts | 117° |
| 2026-05-07 00:46 | 40.87330 | -75.08362 | 9853 ft | 353 kts | 117° |
| 2026-05-07 00:46 | 40.86489 | -75.05373 | 9558 ft | 341 kts | 117° |
| 2026-05-07 00:46 | 40.85679 | -75.02492 | 9282 ft | 328 kts | 117° |
| 2026-05-07 00:46 | 40.84900 | -74.99727 | 9030 ft | 316 kts | 117° |
| 2026-05-07 00:47 | 40.84141 | -74.97044 | 8755 ft | 308 kts | 117° |
| 2026-05-07 00:47 | 40.83391 | -74.94406 | 8503 ft | 306 kts | 117° |
| 2026-05-07 00:47 | 40.82638 | -74.91781 | 8251 ft | 304 kts | 119° |
| 2026-05-07 00:47 | 40.81790 | -74.89239 | 8057 ft | 304 kts | 123° |
| 2026-05-07 00:48 | 40.80861 | -74.86708 | 8044 ft | 307 kts | 123° |
| 2026-05-07 00:48 | 40.79937 | -74.84221 | 8026 ft | 305 kts | 123° |
| 2026-05-07 00:48 | 40.79002 | -74.81720 | 8008 ft | 302 kts | 123° |
| 2026-05-07 00:48 | 40.78079 | -74.79238 | 7992 ft | 300 kts | 123° |
| 2026-05-07 00:49 | 40.77157 | -74.76773 | 8005 ft | 299 kts | 123° |
| 2026-05-07 00:49 | 40.76237 | -74.74304 | 7981 ft | 300 kts | 123° |
| 2026-05-07 00:49 | 40.75335 | -74.71826 | 7988 ft | 301 kts | 120° |
| 2026-05-07 00:49 | 40.74652 | -74.69192 | 7994 ft | 307 kts | 109° |
| 2026-05-07 00:50 | 40.74283 | -74.66376 | 7821 ft | 314 kts | 98° |
| 2026-05-07 00:50 | 40.74268 | -74.63579 | 7785 ft | 297 kts | 87° |
| 2026-05-07 00:50 | 40.74739 | -74.61027 | 7642 ft | 280 kts | 61° |
| 2026-05-07 00:50 | 40.75700 | -74.58891 | 7528 ft | 263 kts | 57° |
| 2026-05-07 00:51 | 40.76586 | -74.56885 | 7389 ft | 249 kts | 58° |
| 2026-05-07 00:51 | 40.77420 | -74.54971 | 7289 ft | 234 kts | 58° |
| 2026-05-07 00:51 | 40.78230 | -74.53113 | 7098 ft | 239 kts | 57° |
| 2026-05-07 00:51 | 40.79124 | -74.51075 | 6948 ft | 280 kts | 57° |
| 2026-05-07 00:52 | 40.80182 | -74.48693 | 6732 ft | 315 kts | 58° |
| 2026-05-07 00:52 | 40.81303 | -74.46191 | 6502 ft | 319 kts | 57° |
| 2026-05-07 00:52 | 40.82426 | -74.43684 | 6252 ft | 315 kts | 57° |
| 2026-05-07 00:52 | 40.83160 | -74.42038 | 6083 ft | 313 kts | 57° |
| 2026-05-07 00:53 | 40.84259 | -74.39571 | 5830 ft | 310 kts | 58° |
| 2026-05-07 00:53 | 40.85348 | -74.37129 | 5567 ft | 307 kts | 57° |
| 2026-05-07 00:53 | 40.86426 | -74.34709 | 5287 ft | 304 kts | 57° |
| 2026-05-07 00:53 | 40.87844 | -74.31516 | 5063 ft | 305 kts | 58° |
| 2026-05-07 00:54 | 40.88912 | -74.29115 | 5019 ft | 302 kts | 58° |
| 2026-05-07 00:54 | 40.89978 | -74.26724 | 5011 ft | 303 kts | 57° |
| 2026-05-07 00:54 | 40.90702 | -74.25103 | 5019 ft | 301 kts | 57° |
| 2026-05-07 00:54 | 40.91752 | -74.22741 | 4998 ft | 292 kts | 57° |
| 2026-05-07 00:55 | 40.92735 | -74.20521 | 4783 ft | 275 kts | 57° |
| 2026-05-07 00:55 | 40.93668 | -74.18407 | 4532 ft | 257 kts | 57° |
| 2026-05-07 00:55 | 40.94546 | -74.16408 | 4353 ft | 248 kts | 57° |
| 2026-05-07 00:55 | 40.95368 | -74.14407 | 4174 ft | 248 kts | 67° |
| 2026-05-07 00:56 | 40.95496 | -74.12181 | 4043 ft | 238 kts | 108° |
| 2026-05-07 00:56 | 40.94853 | -74.10250 | 4020 ft | 227 kts | 120° |
| 2026-05-07 00:56 | 40.93971 | -74.08554 | 4000 ft | 222 kts | 145° |
| 2026-05-07 00:56 | 40.92753 | -74.07326 | 3998 ft | 222 kts | 148° |
| 2026-05-07 00:57 | 40.91544 | -74.06064 | 3736 ft | 225 kts | 147° |
| 2026-05-07 00:57 | 40.90325 | -74.04788 | 3475 ft | 221 kts | 147° |
| 2026-05-07 00:57 | 40.89080 | -74.03689 | 3204 ft | 208 kts | 162° |
| 2026-05-07 00:57 | 40.87755 | -74.03521 | 3041 ft | 184 kts | 208° |
| 2026-05-07 00:58 | 40.86860 | -74.04524 | 3007 ft | 162 kts | 237° |
| 2026-05-07 00:58 | 40.86018 | -74.05490 | 3001 ft | 163 kts | 216° |
| 2026-05-07 00:58 | 40.85042 | -74.06251 | 3030 ft | 160 kts | 218° |
| 2026-05-07 00:58 | 40.84082 | -74.06968 | 3000 ft | 157 kts | 215° |
| 2026-05-07 00:59 | 40.82095 | -74.08286 | 2639 ft | 160 kts | 213° |
| 2026-05-07 00:59 | 40.81099 | -74.08923 | 2443 ft | 158 kts | 213° |
| 2026-05-07 00:59 | 40.80114 | -74.09551 | 2228 ft | 157 kts | 213° |
| 2026-05-07 01:00 | 40.79141 | -74.10169 | 2002 ft | 149 kts | 213° |
| 2026-05-07 01:00 | 40.78260 | -74.10728 | 1813 ft | 135 kts | 214° |
| 2026-05-07 01:00 | 40.77449 | -74.11245 | 1650 ft | 125 kts | 215° |
| 2026-05-07 01:00 | 40.76673 | -74.11741 | 1505 ft | 126 kts | 214° |
| 2026-05-07 01:01 | 40.75854 | -74.12267 | 1322 ft | 133 kts | 212° |
| 2026-05-07 01:01 | 40.75018 | -74.12799 | 1145 ft | 133 kts | 212° |
| 2026-05-07 01:01 | 40.74193 | -74.13324 | 977 ft | 131 kts | 210° |
| 2026-05-07 01:01 | 40.73365 | -74.13851 | 795 ft | 133 kts | 208° |
| 2026-05-07 01:02 | 40.72489 | -74.14409 | 629 ft | 142 kts | 208° |
| 2026-05-07 01:02 | 40.71600 | -74.14980 | 419 ft | 143 kts | 206° |
| 2026-05-07 01:02 | 40.70734 | -74.15553 | 308 ft | 137 kts | 205° |
| 2026-05-07 01:02 | 40.69882 | -74.16078 | 108 ft | 135 kts | 205° |
| 2026-05-07 01:03 | 40.69081 | -74.16590 | 22 ft | 111 kts | 206° |
| 2026-05-07 01:03 | 40.68580 | -74.16901 | 21 ft | 64 kts | 206° |
| 2026-05-07 01:03 | 40.68373 | -74.17038 | 22 ft | 26 kts | 214° |
| 2026-05-07 01:03 | 40.68264 | -74.17182 | 21 ft | 18 kts | 230° |
| 2026-05-07 01:04 | 40.68238 | -74.17227 | 21 ft | 0 kts | 237° |
| 2026-05-07 01:04 | 40.68237 | -74.17230 | 21 ft | 0 kts | 237° |
| 2026-05-07 01:04 | 40.68235 | -74.17232 | 21 ft | 0 kts | 237° |
| 2026-05-07 01:04 | 40.68235 | -74.17233 | 21 ft | 0 kts | 237° |
| 2026-05-07 01:05 | 40.68233 | -74.17236 | 21 ft | 2 kts | 237° |
| 2026-05-07 01:05 | 40.68216 | -74.17271 | 21 ft | 8 kts | 237° |
| 2026-05-07 01:05 | 40.68182 | -74.17339 | 23 ft | 0 kts | 237° |
| 2026-05-07 01:06 | 40.68175 | -74.17352 | 21 ft | 4 kts | 237° |
| 2026-05-07 01:06 | 40.68153 | -74.17398 | 21 ft | 2 kts | 237° |
| 2026-05-07 01:06 | 40.68147 | -74.17412 | 20 ft | 0 kts | 250° |
| 2026-05-07 01:15 | 40.68146 | -74.17417 | 20 ft | 3 kts | 251° |
| 2026-05-07 01:15 | 40.68154 | -74.17467 | 20 ft | 9 kts | 295° |
| 2026-05-07 01:15 | 40.68187 | -74.17558 | 20 ft | 12 kts | 295° |
| 2026-05-07 01:16 | 40.68219 | -74.17644 | 21 ft | 7 kts | 300° |
| 2026-05-07 01:16 | 40.68268 | -74.17653 | 21 ft | 8 kts | 343° |
| 2026-05-07 01:16 | 40.68303 | -74.17722 | 21 ft | 11 kts | 295° |